Flight Track Log - Related Links

Times and Time Zones

All times are in EDT time to prevent confusion due to time zone crossing. See the SKW5631 flight status page for this flight to view local times or setup timezone preferences in your user account.

Time Position Orientation Groundspeed Altitude Reporting Facility
EDT Latitude Longitude Course Direction KTS MPH feet Rate Location/Type
Tue 09:26:42 PM 37.6333 -122.3667 133° Southeast 159 183 1,100  Level Northern Cal TRACON
Tue 09:27:32 PM 37.6678 -122.3664 360° North 167 192 1,800 1,929 Climbing Oakland Center
Tue 09:28:34 PM 37.6997 -122.4306 302° West 249 287 4,700 2,829 Climbing Oakland Center
Tue 09:29:00 PM 37.4178 -122.3201 113° Southeast  Level FlightAware Approximate
Tue 09:29:35 PM 37.6219 -122.4661 200° South 293 337 7,600  Level Oakland Center
Tue 09:30:00 PM 37.3178 -122.1880 136° Southeast  Level FlightAware Approximate
Tue 09:30:36 PM 37.5406 -122.4408 166° South 295 339 10,400  Level Oakland Center
Tue 09:31:00 PM 37.2234 -122.0500 135° Southeast  Level FlightAware Approximate
Tue 09:31:37 PM 37.4647 -122.3808 148° Southeast 320 368 12,400  Level Oakland Center
Tue 09:32:00 PM 37.1564 -121.9641 133° Southeast  Level FlightAware Approximate
Tue 09:32:38 PM 37.3939 -122.3036 139° Southeast 336 387 14,400  Level Oakland Center
Tue 09:33:40 PM 37.3197 -122.2208 138° Southeast 353 406 16,500 1,902 Climbing Oakland Center
Tue 09:34:41 PM 37.2450 -122.1381 139° Southeast 358 412 18,300 1,721 Climbing Oakland Center
Tue 09:35:42 PM 37.1667 -122.0539 139° Southeast 369 425 20,000 1,672 Climbing Oakland Center
Tue 09:36:43 PM 37.0886 -121.9669 138° Southeast 375 432 21,700 1,377 Climbing Oakland Center
Tue 09:37:44 PM 37.0069 -121.8783 139° Southeast 386 444 22,800 1,122 Climbing Oakland Center
Tue 09:38:46 PM 36.9042 -121.7708 140° Southeast 402 463 24,000 1,122 Climbing Oakland Center
Tue 09:39:47 PM 36.8164 -121.6769 139° Southeast 413 475 25,100 1,082 Climbing Oakland Center
Tue 09:40:48 PM 36.7331 -121.5856 139° Southeast 414 476 26,200 1,131 Climbing Oakland Center
Tue 09:41:49 PM 36.6453 -121.4925 140° Southeast 413 475 27,400 1,082 Climbing Oakland Center
Tue 09:42:50 PM 36.5581 -121.3961 138° Southeast 418 481 28,400 984 Climbing Oakland Center
Tue 09:43:51 PM 36.4700 -121.3031 140° Southeast 416 479 29,400 927 Climbing Oakland Center
Tue 09:44:53 PM 36.3811 -121.2086 139° Southeast 420 483 30,300 732 Climbing Oakland Center
Tue 09:45:54 PM 36.2903 -121.1111 139° Southeast 430 495 30,900 344 Climbing Oakland Center
Tue 09:46:55 PM 36.1769 -120.9925 140° Southeast 443 510 31,000 49 Climbing Oakland Center
Tue 09:47:56 PM 36.0792 -120.8875 139° Southeast 460 529 31,000  Level Oakland Center
Tue 09:48:58 PM 35.9836 -120.7856 139° Southeast 454 522 31,000  Level Oakland Center
Tue 09:49:59 PM 35.8883 -120.6867 140° Southeast 450 518 31,000  Level Oakland Center
Tue 09:51:00 PM 35.7925 -120.5861 140° Southeast 451 519 31,000 -49 Level Oakland Center
Tue 09:52:01 PM 35.6994 -120.4889 140° Southeast 443 510 30,900  Descending Oakland Center
Tue 09:53:02 PM 35.6053 -120.3919 140° Southeast 438 504 31,000 -295 Climbing Oakland Center
Tue 09:54:03 PM 35.5125 -120.2958 140° Southeast 431 496 30,300 -1,082 Descending Oakland Center
Tue 09:55:04 PM 35.4278 -120.2064 139° Southeast 423 487 28,800 -1,513 Descending Oakland Center
Tue 09:56:02 PM 35.3428 -120.1208 141° Southeast 402 463 27,300 -1,590 Descending Los Angeles Center
Tue 09:57:01 PM 35.2528 -120.0286 140° Southeast 390 449 25,700 -1,537 Descending Los Angeles Center
Tue 09:58:03 PM 35.1714 -119.9464 140° Southeast 381 438 24,200 -1,333 Descending Los Angeles Center
Tue 09:59:16 PM 35.0919 -119.8639 140° Southeast 375 432 22,700 -1,333 Descending Los Angeles Center
Tue 10:00:18 PM 35.0125 -119.7544 132° Southeast 362 417 21,200 -1,355 Descending Los Angeles Center
Tue 10:01:20 PM 34.9458 -119.6661 133° Southeast 356 410 19,900 -1,268 Descending Los Angeles Center
Tue 10:02:21 PM 34.8811 -119.5786 132° Southeast 350 403 18,600 -1,317 Descending Los Angeles Center
Tue 10:03:23 PM 34.8183 -119.4928 132° Southeast 343 395 17,200 -1,268 Descending Los Angeles Center
Tue 10:04:24 PM 34.7561 -119.4075 132° Southeast 339 390 16,000 -1,268 Descending Los Angeles Center
Tue 10:05:26 PM 34.6789 -119.3078 133° Southeast 337 388 14,600 -1,161 Descending Los Angeles Center
Tue 10:06:28 PM 34.6194 -119.2258 131° Southeast 329 379 13,600 -1,073 Descending Los Angeles Center
Tue 10:07:29 PM 34.5564 -119.1481 135° Southeast 325 374 12,400 -1,073 Descending Los Angeles Center
Tue 10:08:31 PM 34.4964 -119.0625 130° Southeast 330 380 11,400 -683 Descending Los Angeles Center
Tue 10:09:32 PM 34.4350 -118.9831 133° Southeast 322 371 11,000 -488 Descending Los Angeles Center
Tue 10:10:34 PM 34.3769 -118.9044 132° Southeast 313 360 10,400 -1,492 Descending Los Angeles Center
Tue 10:12:37 PM 34.2678 -118.7261 126° Southeast 293 337 6,400 -1,784 Descending Los Angeles Center
Tue 10:13:39 PM 34.2244 -118.6506 125° Southeast 284 327 4,900 -1,171 Descending Los Angeles Center
Tue 10:14:40 PM 34.2025 -118.5753 109° East 251 289 4,000 -683 Descending Los Angeles Center
Tue 10:15:42 PM 34.2006 -118.5108 92° East 211 243 3,500 -680 Descending Los Angeles Center
Tue 10:17:00 PM 34.2001 -118.3614 90° East  Level FlightAware Approximate
Tue 10:18:47 PM 34.1978 -118.3733 90° East 134 154 1,200  Level Los Angeles Center
Tue 10:24:00 PM 34.2000 -118.3500 90° East  Level FlightAware Approximate

Login

Don't have an account? Register now (free) for customized features, flight alerts, and more!